Curtis, Texas
Current Conditions -  °F | °C
As of 12:35 AM on Saturday 20 Dec 2014 (Local Time) from KJAS Reporting Station
Drizzle Drizzle  
Wind Chill: 45°   Ceiling: 600
Heat Index: 48°   Visibility: 5mi
Dew Point: 46°   Wind: 6mph
Humidity: 95%   Direction: 30°NNE
Pressure: 30.17"   Gusts: NA
Location:  30.9529°N, 94.0707°W
Report Text: KJAS 200635Z AUTO 03005KT 5SM DZ OVC006 09/08 A3017 RMK AO2 T00880080
Loading
Personal Weather Stations






























Interactive Weather Map New forecast layout! Learn more

10-Day Weather Forecast

Advertisements
Track Severe Weather on mobile